sensor_id;sensor_type;location;lat;lon;timestamp;P1;durP1;ratioP1;P2;durP2;ratioP2
72156;SDS011;60035;52.122;5.406;2023-04-30T00:00:33;11.55;;;5.18;;
72156;SDS011;60035;52.122;5.406;2023-04-30T00:03:01;13.80;;;4.50;;
72156;SDS011;60035;52.122;5.406;2023-04-30T00:05:27;12.65;;;5.35;;
72156;SDS011;60035;52.122;5.406;2023-04-30T00:07:54;12.73;;;5.53;;
72156;SDS011;60035;52.122;5.406;2023-04-30T00:10:20;13.75;;;5.15;;
72156;SDS011;60035;52.122;5.406;2023-04-30T00:12:46;10.57;;;4.50;;
72156;SDS011;60035;52.122;5.406;2023-04-30T00:15:13;13.40;;;4.97;;
72156;SDS011;60035;52.122;5.406;2023-04-30T00:17:39;15.85;;;5.60;;
72156;SDS011;60035;52.122;5.406;2023-04-30T00:20:06;14.02;;;5.55;;
72156;SDS011;60035;52.122;5.406;2023-04-30T00:22:33;12.82;;;5.15;;
72156;SDS011;60035;52.122;5.406;2023-04-30T00:25:00;13.82;;;5.47;;
72156;SDS011;60035;52.122;5.406;2023-04-30T00:27:26;13.10;;;5.45;;
72156;SDS011;60035;52.122;5.406;2023-04-30T00:29:53;14.13;;;5.38;;
72156;SDS011;60035;52.122;5.406;2023-04-30T00:32:20;15.80;;;5.38;;
72156;SDS011;60035;52.122;5.406;2023-04-30T00:34:47;12.38;;;5.22;;
72156;SDS011;60035;52.122;5.406;2023-04-30T00:37:14;13.13;;;5.35;;
72156;SDS011;60035;52.122;5.406;2023-04-30T00:39:40;14.68;;;5.38;;
72156;SDS011;60035;52.122;5.406;2023-04-30T00:42:06;11.88;;;5.07;;
72156;SDS011;60035;52.122;5.406;2023-04-30T00:44:33;13.80;;;5.20;;
72156;SDS011;60035;52.122;5.406;2023-04-30T00:46:59;15.00;;;5.40;;
72156;SDS011;60035;52.122;5.406;2023-04-30T00:49:26;11.50;;;4.85;;
72156;SDS011;60035;52.122;5.406;2023-04-30T00:51:53;12.48;;;5.35;;
72156;SDS011;60035;52.122;5.406;2023-04-30T00:54:21;12.57;;;4.70;;
72156;SDS011;60035;52.122;5.406;2023-04-30T00:56:49;11.75;;;4.95;;
72156;SDS011;60035;52.122;5.406;2023-04-30T00:59:15;13.38;;;5.30;;
72156;SDS011;60035;52.122;5.406;2023-04-30T01:01:42;15.07;;;5.78;;
72156;SDS011;60035;52.122;5.406;2023-04-30T01:04:09;14.30;;;5.50;;
72156;SDS011;60035;52.122;5.406;2023-04-30T01:06:35;12.50;;;5.30;;
72156;SDS011;60035;52.122;5.406;2023-04-30T01:09:02;12.13;;;5.68;;
72156;SDS011;60035;52.122;5.406;2023-04-30T01:11:39;13.60;;;6.07;;
72156;SDS011;60035;52.122;5.406;2023-04-30T01:14:24;12.55;;;5.45;;
72156;SDS011;60035;52.122;5.406;2023-04-30T01:17:03;12.30;;;4.88;;
72156;SDS011;60035;52.122;5.406;2023-04-30T01:19:45;15.57;;;5.55;;
72156;SDS011;60035;52.122;5.406;2023-04-30T01:28:02;12.95;;;5.22;;
72156;SDS011;60035;52.122;5.406;2023-04-30T01:30:31;13.82;;;5.47;;
72156;SDS011;60035;52.122;5.406;2023-04-30T01:32:58;14.95;;;5.47;;
72156;SDS011;60035;52.122;5.406;2023-04-30T01:35:30;12.40;;;4.95;;
72156;SDS011;60035;52.122;5.406;2023-04-30T01:40:50;16.13;;;6.43;;
72156;SDS011;60035;52.122;5.406;2023-04-30T01:43:39;12.27;;;5.47;;
72156;SDS011;60035;52.122;5.406;2023-04-30T01:46:17;12.68;;;5.53;;
72156;SDS011;60035;52.122;5.406;2023-04-30T01:54:02;20.15;;;8.43;;
72156;SDS011;60035;52.122;5.406;2023-04-30T01:56:45;19.48;;;8.65;;
72156;SDS011;60035;52.122;5.406;2023-04-30T01:59:37;15.60;;;7.50;;
72156;SDS011;60035;52.122;5.406;2023-04-30T02:02:05;15.82;;;6.53;;
72156;SDS011;60035;52.122;5.406;2023-04-30T02:04:31;17.20;;;6.75;;
72156;SDS011;60035;52.122;5.406;2023-04-30T02:06:58;16.60;;;6.35;;
72156;SDS011;60035;52.122;5.406;2023-04-30T02:09:25;14.98;;;6.40;;
72156;SDS011;60035;52.122;5.406;2023-04-30T02:11:51;15.93;;;6.22;;
72156;SDS011;60035;52.122;5.406;2023-04-30T02:14:18;15.40;;;6.93;;
72156;SDS011;60035;52.122;5.406;2023-04-30T02:16:44;15.55;;;6.57;;
72156;SDS011;60035;52.122;5.406;2023-04-30T02:19:10;11.80;;;5.15;;
72156;SDS011;60035;52.122;5.406;2023-04-30T02:21:37;14.30;;;5.95;;
72156;SDS011;60035;52.122;5.406;2023-04-30T02:24:04;12.63;;;5.22;;
72156;SDS011;60035;52.122;5.406;2023-04-30T02:26:31;11.85;;;4.90;;
72156;SDS011;60035;52.122;5.406;2023-04-30T02:28:57;12.98;;;5.72;;
72156;SDS011;60035;52.122;5.406;2023-04-30T02:31:24;15.18;;;6.28;;
72156;SDS011;60035;52.122;5.406;2023-04-30T02:33:50;15.98;;;5.70;;
72156;SDS011;60035;52.122;5.406;2023-04-30T02:36:17;12.32;;;5.75;;
72156;SDS011;60035;52.122;5.406;2023-04-30T02:38:43;14.32;;;5.47;;
72156;SDS011;60035;52.122;5.406;2023-04-30T02:41:09;15.35;;;6.80;;
72156;SDS011;60035;52.122;5.406;2023-04-30T02:43:36;15.07;;;6.13;;
72156;SDS011;60035;52.122;5.406;2023-04-30T02:46:02;18.73;;;6.75;;
72156;SDS011;60035;52.122;5.406;2023-04-30T02:48:29;16.02;;;6.18;;
72156;SDS011;60035;52.122;5.406;2023-04-30T02:50:55;14.18;;;6.05;;
72156;SDS011;60035;52.122;5.406;2023-04-30T02:53:22;14.10;;;5.63;;
72156;SDS011;60035;52.122;5.406;2023-04-30T02:55:48;13.68;;;5.68;;
72156;SDS011;60035;52.122;5.406;2023-04-30T02:58:15;13.25;;;5.70;;
72156;SDS011;60035;52.122;5.406;2023-04-30T03:00:41;11.07;;;4.70;;
72156;SDS011;60035;52.122;5.406;2023-04-30T03:03:07;14.32;;;5.32;;
72156;SDS011;60035;52.122;5.406;2023-04-30T03:05:34;12.77;;;5.20;;
72156;SDS011;60035;52.122;5.406;2023-04-30T03:08:01;13.52;;;5.32;;
72156;SDS011;60035;52.122;5.406;2023-04-30T03:10:27;13.85;;;5.90;;
72156;SDS011;60035;52.122;5.406;2023-04-30T03:12:53;13.52;;;5.65;;
72156;SDS011;60035;52.122;5.406;2023-04-30T03:15:20;11.88;;;4.75;;
72156;SDS011;60035;52.122;5.406;2023-04-30T03:17:46;12.82;;;5.30;;
72156;SDS011;60035;52.122;5.406;2023-04-30T03:20:13;13.60;;;5.45;;
72156;SDS011;60035;52.122;5.406;2023-04-30T03:22:39;14.48;;;5.40;;
72156;SDS011;60035;52.122;5.406;2023-04-30T03:25:07;12.85;;;5.43;;
72156;SDS011;60035;52.122;5.406;2023-04-30T03:27:33;13.10;;;5.45;;
72156;SDS011;60035;52.122;5.406;2023-04-30T03:30:00;14.25;;;5.13;;
72156;SDS011;60035;52.122;5.406;2023-04-30T03:32:26;11.40;;;5.57;;
72156;SDS011;60035;52.122;5.406;2023-04-30T03:34:53;13.38;;;5.30;;
72156;SDS011;60035;52.122;5.406;2023-04-30T03:37:19;11.82;;;4.72;;
72156;SDS011;60035;52.122;5.406;2023-04-30T03:39:46;11.98;;;4.97;;
72156;SDS011;60035;52.122;5.406;2023-04-30T03:42:12;13.57;;;5.45;;
72156;SDS011;60035;52.122;5.406;2023-04-30T03:44:38;11.48;;;4.75;;
72156;SDS011;60035;52.122;5.406;2023-04-30T03:47:05;12.60;;;5.03;;
72156;SDS011;60035;52.122;5.406;2023-04-30T03:49:31;13.93;;;5.32;;
72156;SDS011;60035;52.122;5.406;2023-04-30T03:51:58;15.80;;;5.72;;
72156;SDS011;60035;52.122;5.406;2023-04-30T03:54:24;12.18;;;5.15;;
72156;SDS011;60035;52.122;5.406;2023-04-30T03:56:51;13.32;;;4.97;;
72156;SDS011;60035;52.122;5.406;2023-04-30T03:59:17;13.65;;;4.80;;
72156;SDS011;60035;52.122;5.406;2023-04-30T04:01:44;14.85;;;5.30;;
72156;SDS011;60035;52.122;5.406;2023-04-30T04:04:11;13.00;;;5.10;;
72156;SDS011;60035;52.122;5.406;2023-04-30T04:06:37;13.73;;;5.30;;
72156;SDS011;60035;52.122;5.406;2023-04-30T04:09:04;14.48;;;5.35;;
72156;SDS011;60035;52.122;5.406;2023-04-30T04:11:31;13.23;;;5.20;;
72156;SDS011;60035;52.122;5.406;2023-04-30T04:13:58;13.15;;;5.93;;
72156;SDS011;60035;52.122;5.406;2023-04-30T04:16:25;14.48;;;5.25;;
72156;SDS011;60035;52.122;5.406;2023-04-30T04:18:52;14.32;;;5.95;;
72156;SDS011;60035;52.122;5.406;2023-04-30T04:21:18;12.98;;;5.88;;
72156;SDS011;60035;52.122;5.406;2023-04-30T04:23:45;11.68;;;5.25;;
72156;SDS011;60035;52.122;5.406;2023-04-30T04:26:11;13.40;;;5.45;;
72156;SDS011;60035;52.122;5.406;2023-04-30T04:28:38;11.48;;;5.05;;
72156;SDS011;60035;52.122;5.406;2023-04-30T04:31:04;13.38;;;5.07;;
72156;SDS011;60035;52.122;5.406;2023-04-30T04:33:30;12.10;;;5.07;;
72156;SDS011;60035;52.122;5.406;2023-04-30T04:35:57;12.02;;;5.00;;
72156;SDS011;60035;52.122;5.406;2023-04-30T04:38:24;13.13;;;5.10;;
72156;SDS011;60035;52.122;5.406;2023-04-30T04:40:51;13.07;;;4.68;;
72156;SDS011;60035;52.122;5.406;2023-04-30T04:43:18;12.15;;;4.38;;
72156;SDS011;60035;52.122;5.406;2023-04-30T04:45:45;14.10;;;5.30;;
72156;SDS011;60035;52.122;5.406;2023-04-30T04:48:13;13.30;;;5.65;;
72156;SDS011;60035;52.122;5.406;2023-04-30T04:50:40;13.40;;;5.07;;
72156;SDS011;60035;52.122;5.406;2023-04-30T04:53:06;14.43;;;5.60;;
72156;SDS011;60035;52.122;5.406;2023-04-30T04:55:33;12.82;;;5.47;;
72156;SDS011;60035;52.122;5.406;2023-04-30T04:57:59;12.93;;;5.28;;
72156;SDS011;60035;52.122;5.406;2023-04-30T05:00:26;11.45;;;4.60;;
72156;SDS011;60035;52.122;5.406;2023-04-30T05:02:53;12.35;;;5.00;;
72156;SDS011;60035;52.122;5.406;2023-04-30T05:05:20;13.98;;;5.60;;
72156;SDS011;60035;52.122;5.406;2023-04-30T05:07:46;14.18;;;5.68;;
72156;SDS011;60035;52.122;5.406;2023-04-30T05:10:15;12.95;;;5.65;;
72156;SDS011;60035;52.122;5.406;2023-04-30T05:12:41;13.07;;;5.18;;
72156;SDS011;60035;52.122;5.406;2023-04-30T05:15:08;12.82;;;5.32;;
72156;SDS011;60035;52.122;5.406;2023-04-30T05:17:35;17.92;;;6.22;;
72156;SDS011;60035;52.122;5.406;2023-04-30T05:20:01;11.98;;;5.22;;
72156;SDS011;60035;52.122;5.406;2023-04-30T05:22:28;13.35;;;5.82;;
72156;SDS011;60035;52.122;5.406;2023-04-30T05:24:55;14.88;;;5.72;;
72156;SDS011;60035;52.122;5.406;2023-04-30T05:27:21;13.80;;;5.45;;
72156;SDS011;60035;52.122;5.406;2023-04-30T05:29:48;14.30;;;5.90;;
72156;SDS011;60035;52.122;5.406;2023-04-30T05:32:14;13.82;;;5.75;;
72156;SDS011;60035;52.122;5.406;2023-04-30T05:34:41;16.48;;;6.25;;
72156;SDS011;60035;52.122;5.406;2023-04-30T05:37:07;12.90;;;5.53;;
72156;SDS011;60035;52.122;5.406;2023-04-30T05:39:34;13.38;;;5.60;;
72156;SDS011;60035;52.122;5.406;2023-04-30T05:42:00;14.57;;;5.78;;
72156;SDS011;60035;52.122;5.406;2023-04-30T05:44:27;13.15;;;5.75;;
72156;SDS011;60035;52.122;5.406;2023-04-30T05:46:55;13.55;;;6.13;;
72156;SDS011;60035;52.122;5.406;2023-04-30T05:49:21;14.70;;;6.70;;
72156;SDS011;60035;52.122;5.406;2023-04-30T05:51:48;15.20;;;5.93;;
72156;SDS011;60035;52.122;5.406;2023-04-30T05:54:14;13.77;;;5.32;;
72156;SDS011;60035;52.122;5.406;2023-04-30T05:56:41;15.63;;;6.95;;
72156;SDS011;60035;52.122;5.406;2023-04-30T05:59:08;12.75;;;6.15;;
72156;SDS011;60035;52.122;5.406;2023-04-30T06:01:34;12.15;;;6.30;;
72156;SDS011;60035;52.122;5.406;2023-04-30T06:04:00;15.48;;;6.43;;
72156;SDS011;60035;52.122;5.406;2023-04-30T06:06:29;13.68;;;5.70;;
72156;SDS011;60035;52.122;5.406;2023-04-30T06:08:56;12.38;;;5.70;;
72156;SDS011;60035;52.122;5.406;2023-04-30T06:11:23;13.90;;;6.80;;
72156;SDS011;60035;52.122;5.406;2023-04-30T06:13:52;14.18;;;5.55;;
72156;SDS011;60035;52.122;5.406;2023-04-30T06:16:19;13.20;;;5.20;;
72156;SDS011;60035;52.122;5.406;2023-04-30T06:18:45;12.73;;;5.47;;
72156;SDS011;60035;52.122;5.406;2023-04-30T06:21:11;13.75;;;5.07;;
72156;SDS011;60035;52.122;5.406;2023-04-30T06:23:38;17.15;;;5.63;;
72156;SDS011;60035;52.122;5.406;2023-04-30T06:26:04;14.18;;;5.93;;
72156;SDS011;60035;52.122;5.406;2023-04-30T06:28:31;14.77;;;5.85;;
72156;SDS011;60035;52.122;5.406;2023-04-30T06:30:57;15.18;;;6.43;;
72156;SDS011;60035;52.122;5.406;2023-04-30T06:33:24;14.20;;;5.80;;
72156;SDS011;60035;52.122;5.406;2023-04-30T06:35:50;15.30;;;6.28;;
72156;SDS011;60035;52.122;5.406;2023-04-30T06:38:20;12.63;;;6.35;;
72156;SDS011;60035;52.122;5.406;2023-04-30T06:40:46;12.65;;;4.93;;
72156;SDS011;60035;52.122;5.406;2023-04-30T06:43:13;12.60;;;5.45;;
72156;SDS011;60035;52.122;5.406;2023-04-30T06:45:39;12.73;;;5.50;;
72156;SDS011;60035;52.122;5.406;2023-04-30T06:48:06;14.15;;;5.40;;
72156;SDS011;60035;52.122;5.406;2023-04-30T06:50:33;11.13;;;5.10;;
72156;SDS011;60035;52.122;5.406;2023-04-30T06:52:59;11.25;;;4.78;;
72156;SDS011;60035;52.122;5.406;2023-04-30T06:55:26;12.25;;;5.15;;
72156;SDS011;60035;52.122;5.406;2023-04-30T06:57:53;12.50;;;5.10;;
72156;SDS011;60035;52.122;5.406;2023-04-30T07:00:19;10.90;;;4.85;;
72156;SDS011;60035;52.122;5.406;2023-04-30T07:02:46;12.27;;;5.47;;
72156;SDS011;60035;52.122;5.406;2023-04-30T07:05:16;12.95;;;5.50;;
72156;SDS011;60035;52.122;5.406;2023-04-30T07:07:43;12.32;;;5.05;;
72156;SDS011;60035;52.122;5.406;2023-04-30T07:10:10;13.40;;;4.25;;
72156;SDS011;60035;52.122;5.406;2023-04-30T07:12:37;11.45;;;4.05;;
72156;SDS011;60035;52.122;5.406;2023-04-30T07:15:03;10.60;;;4.82;;
72156;SDS011;60035;52.122;5.406;2023-04-30T07:17:30;11.45;;;4.93;;
72156;SDS011;60035;52.122;5.406;2023-04-30T07:19:56;11.15;;;4.93;;
72156;SDS011;60035;52.122;5.406;2023-04-30T07:22:23;10.43;;;4.82;;
72156;SDS011;60035;52.122;5.406;2023-04-30T07:24:49;12.82;;;6.03;;
72156;SDS011;60035;52.122;5.406;2023-04-30T07:27:16;11.57;;;4.68;;
72156;SDS011;60035;52.122;5.406;2023-04-30T07:29:42;11.93;;;4.88;;
72156;SDS011;60035;52.122;5.406;2023-04-30T07:32:08;11.18;;;4.70;;
72156;SDS011;60035;52.122;5.406;2023-04-30T07:34:35;10.73;;;4.88;;
72156;SDS011;60035;52.122;5.406;2023-04-30T07:37:02;10.80;;;5.03;;
72156;SDS011;60035;52.122;5.406;2023-04-30T07:39:29;13.93;;;5.40;;
72156;SDS011;60035;52.122;5.406;2023-04-30T07:41:56;10.80;;;5.15;;
72156;SDS011;60035;52.122;5.406;2023-04-30T07:44:22;10.85;;;4.75;;
72156;SDS011;60035;52.122;5.406;2023-04-30T07:46:48;11.60;;;5.13;;
72156;SDS011;60035;52.122;5.406;2023-04-30T07:49:15;11.48;;;5.13;;
72156;SDS011;60035;52.122;5.406;2023-04-30T07:51:41;12.38;;;5.43;;
72156;SDS011;60035;52.122;5.406;2023-04-30T07:54:08;13.77;;;5.93;;
72156;SDS011;60035;52.122;5.406;2023-04-30T07:56:34;11.18;;;5.07;;
72156;SDS011;60035;52.122;5.406;2023-04-30T07:59:01;11.00;;;5.40;;
72156;SDS011;60035;52.122;5.406;2023-04-30T08:01:27;10.43;;;4.78;;
72156;SDS011;60035;52.122;5.406;2023-04-30T08:03:57;9.30;;;4.32;;
72156;SDS011;60035;52.122;5.406;2023-04-30T08:06:24;11.18;;;4.80;;
72156;SDS011;60035;52.122;5.406;2023-04-30T08:08:53;10.68;;;4.95;;
72156;SDS011;60035;52.122;5.406;2023-04-30T08:11:21;11.07;;;5.13;;
72156;SDS011;60035;52.122;5.406;2023-04-30T08:13:48;11.88;;;5.13;;
72156;SDS011;60035;52.122;5.406;2023-04-30T08:16:14;11.18;;;4.57;;
72156;SDS011;60035;52.122;5.406;2023-04-30T08:18:42;10.90;;;4.85;;
72156;SDS011;60035;52.122;5.406;2023-04-30T08:21:10;11.88;;;4.70;;
72156;SDS011;60035;52.122;5.406;2023-04-30T08:23:40;12.93;;;5.55;;
72156;SDS011;60035;52.122;5.406;2023-04-30T08:26:06;11.95;;;4.75;;
72156;SDS011;60035;52.122;5.406;2023-04-30T08:28:33;11.55;;;5.35;;
72156;SDS011;60035;52.122;5.406;2023-04-30T08:30:59;14.25;;;4.65;;
72156;SDS011;60035;52.122;5.406;2023-04-30T08:33:26;12.02;;;5.15;;
72156;SDS011;60035;52.122;5.406;2023-04-30T08:35:53;11.48;;;5.57;;
72156;SDS011;60035;52.122;5.406;2023-04-30T08:38:19;11.40;;;4.85;;
72156;SDS011;60035;52.122;5.406;2023-04-30T08:40:47;9.77;;;4.57;;
72156;SDS011;60035;52.122;5.406;2023-04-30T08:43:18;11.07;;;4.50;;
72156;SDS011;60035;52.122;5.406;2023-04-30T08:45:45;10.30;;;4.50;;
72156;SDS011;60035;52.122;5.406;2023-04-30T08:48:13;10.55;;;4.30;;
72156;SDS011;60035;52.122;5.406;2023-04-30T08:50:41;9.07;;;4.18;;
72156;SDS011;60035;52.122;5.406;2023-04-30T08:53:08;10.60;;;4.20;;
72156;SDS011;60035;52.122;5.406;2023-04-30T08:55:36;10.00;;;4.05;;
72156;SDS011;60035;52.122;5.406;2023-04-30T08:58:06;11.73;;;4.20;;
72156;SDS011;60035;52.122;5.406;2023-04-30T09:00:35;9.57;;;2.88;;
72156;SDS011;60035;52.122;5.406;2023-04-30T09:03:03;9.38;;;3.83;;
72156;SDS011;60035;52.122;5.406;2023-04-30T09:05:31;9.50;;;3.42;;
72156;SDS011;60035;52.122;5.406;2023-04-30T09:07:57;9.02;;;3.67;;
72156;SDS011;60035;52.122;5.406;2023-04-30T09:10:32;9.93;;;4.10;;
72156;SDS011;60035;52.122;5.406;2023-04-30T09:13:06;9.93;;;3.92;;
72156;SDS011;60035;52.122;5.406;2023-04-30T09:15:35;7.53;;;3.55;;
72156;SDS011;60035;52.122;5.406;2023-04-30T09:18:10;9.38;;;3.85;;
72156;SDS011;60035;52.122;5.406;2023-04-30T09:20:58;9.73;;;4.00;;
72156;SDS011;60035;52.122;5.406;2023-04-30T09:23:27;9.07;;;3.65;;
72156;SDS011;60035;52.122;5.406;2023-04-30T09:25:54;7.75;;;3.20;;
72156;SDS011;60035;52.122;5.406;2023-04-30T09:28:22;11.05;;;3.72;;
72156;SDS011;60035;52.122;5.406;2023-04-30T09:30:51;9.95;;;3.58;;
72156;SDS011;60035;52.122;5.406;2023-04-30T09:33:18;6.72;;;3.17;;
72156;SDS011;60035;52.122;5.406;2023-04-30T09:35:45;7.68;;;3.33;;
72156;SDS011;60035;52.122;5.406;2023-04-30T09:38:24;9.02;;;3.15;;
72156;SDS011;60035;52.122;5.406;2023-04-30T09:40:56;7.32;;;2.88;;
72156;SDS011;60035;52.122;5.406;2023-04-30T09:43:25;7.03;;;3.33;;
72156;SDS011;60035;52.122;5.406;2023-04-30T09:45:52;9.40;;;3.22;;
72156;SDS011;60035;52.122;5.406;2023-04-30T09:48:22;8.05;;;3.22;;
72156;SDS011;60035;52.122;5.406;2023-04-30T09:50:50;8.05;;;3.25;;
72156;SDS011;60035;52.122;5.406;2023-04-30T09:53:17;8.68;;;2.92;;
72156;SDS011;60035;52.122;5.406;2023-04-30T09:55:45;9.68;;;2.85;;
72156;SDS011;60035;52.122;5.406;2023-04-30T09:58:13;7.90;;;2.78;;
72156;SDS011;60035;52.122;5.406;2023-04-30T10:00:40;7.60;;;3.13;;
72156;SDS011;60035;52.122;5.406;2023-04-30T10:03:09;7.38;;;2.83;;
72156;SDS011;60035;52.122;5.406;2023-04-30T10:05:37;7.85;;;2.90;;
72156;SDS011;60035;52.122;5.406;2023-04-30T10:08:06;8.68;;;3.47;;
72156;SDS011;60035;52.122;5.406;2023-04-30T10:10:39;6.55;;;2.53;;
72156;SDS011;60035;52.122;5.406;2023-04-30T10:13:09;5.68;;;2.40;;
72156;SDS011;60035;52.122;5.406;2023-04-30T10:15:42;7.05;;;2.63;;
72156;SDS011;60035;52.122;5.406;2023-04-30T10:18:22;7.05;;;2.75;;
72156;SDS011;60035;52.122;5.406;2023-04-30T10:21:04;7.32;;;2.92;;
72156;SDS011;60035;52.122;5.406;2023-04-30T10:23:37;7.78;;;3.08;;
72156;SDS011;60035;52.122;5.406;2023-04-30T10:26:05;7.57;;;3.08;;
72156;SDS011;60035;52.122;5.406;2023-04-30T10:28:32;7.50;;;2.70;;
72156;SDS011;60035;52.122;5.406;2023-04-30T10:30:58;6.57;;;2.88;;
72156;SDS011;60035;52.122;5.406;2023-04-30T10:33:28;6.18;;;2.80;;
72156;SDS011;60035;52.122;5.406;2023-04-30T10:39:15;8.48;;;3.10;;
72156;SDS011;60035;52.122;5.406;2023-04-30T10:41:44;6.63;;;2.90;;
72156;SDS011;60035;52.122;5.406;2023-04-30T10:44:12;5.10;;;2.47;;
72156;SDS011;60035;52.122;5.406;2023-04-30T10:46:38;6.10;;;2.55;;
72156;SDS011;60035;52.122;5.406;2023-04-30T10:49:06;6.90;;;2.90;;
72156;SDS011;60035;52.122;5.406;2023-04-30T10:54:29;6.60;;;2.50;;
72156;SDS011;60035;52.122;5.406;2023-04-30T10:57:18;7.43;;;2.35;;
72156;SDS011;60035;52.122;5.406;2023-04-30T11:02:43;6.07;;;2.42;;
72156;SDS011;60035;52.122;5.406;2023-04-30T11:07:49;5.38;;;2.20;;
72156;SDS011;60035;52.122;5.406;2023-04-30T11:10:20;5.88;;;2.80;;
72156;SDS011;60035;52.122;5.406;2023-04-30T11:12:51;6.60;;;2.42;;
72156;SDS011;60035;52.122;5.406;2023-04-30T11:15:20;5.55;;;2.72;;
72156;SDS011;60035;52.122;5.406;2023-04-30T11:17:54;6.68;;;2.63;;
72156;SDS011;60035;52.122;5.406;2023-04-30T11:20:24;6.05;;;2.42;;
72156;SDS011;60035;52.122;5.406;2023-04-30T11:23:07;6.93;;;2.65;;
72156;SDS011;60035;52.122;5.406;2023-04-30T11:25:38;6.43;;;2.53;;
72156;SDS011;60035;52.122;5.406;2023-04-30T11:28:06;5.80;;;2.45;;
72156;SDS011;60035;52.122;5.406;2023-04-30T11:30:36;5.28;;;2.40;;
72156;SDS011;60035;52.122;5.406;2023-04-30T11:33:04;6.10;;;2.45;;
72156;SDS011;60035;52.122;5.406;2023-04-30T11:35:31;5.85;;;2.40;;
72156;SDS011;60035;52.122;5.406;2023-04-30T11:37:58;6.68;;;2.60;;
72156;SDS011;60035;52.122;5.406;2023-04-30T11:40:25;6.93;;;2.35;;
72156;SDS011;60035;52.122;5.406;2023-04-30T11:42:54;5.72;;;2.38;;
72156;SDS011;60035;52.122;5.406;2023-04-30T11:45:20;5.38;;;2.30;;
72156;SDS011;60035;52.122;5.406;2023-04-30T11:47:49;6.93;;;2.40;;
72156;SDS011;60035;52.122;5.406;2023-04-30T11:50:17;5.78;;;2.50;;
72156;SDS011;60035;52.122;5.406;2023-04-30T11:52:51;6.57;;;2.22;;
72156;SDS011;60035;52.122;5.406;2023-04-30T11:55:18;6.70;;;2.22;;
72156;SDS011;60035;52.122;5.406;2023-04-30T11:57:47;5.18;;;2.08;;
72156;SDS011;60035;52.122;5.406;2023-04-30T12:02:43;5.20;;;1.90;;
72156;SDS011;60035;52.122;5.406;2023-04-30T12:05:13;7.05;;;2.33;;
72156;SDS011;60035;52.122;5.406;2023-04-30T12:07:44;6.13;;;2.15;;
72156;SDS011;60035;52.122;5.406;2023-04-30T12:10:12;7.93;;;2.67;;
72156;SDS011;60035;52.122;5.406;2023-04-30T12:12:38;5.63;;;2.33;;
72156;SDS011;60035;52.122;5.406;2023-04-30T12:15:12;5.70;;;2.25;;
72156;SDS011;60035;52.122;5.406;2023-04-30T12:17:41;8.45;;;2.40;;
72156;SDS011;60035;52.122;5.406;2023-04-30T12:20:08;6.00;;;2.00;;
72156;SDS011;60035;52.122;5.406;2023-04-30T12:22:36;5.28;;;2.00;;
72156;SDS011;60035;52.122;5.406;2023-04-30T12:25:06;4.68;;;2.08;;
72156;SDS011;60035;52.122;5.406;2023-04-30T12:27:35;5.28;;;1.90;;
72156;SDS011;60035;52.122;5.406;2023-04-30T12:30:02;4.80;;;1.98;;
72156;SDS011;60035;52.122;5.406;2023-04-30T12:32:36;3.97;;;1.75;;
72156;SDS011;60035;52.122;5.406;2023-04-30T12:35:05;4.68;;;1.95;;
72156;SDS011;60035;52.122;5.406;2023-04-30T12:37:32;5.32;;;1.85;;
72156;SDS011;60035;52.122;5.406;2023-04-30T12:39:58;4.78;;;1.83;;
72156;SDS011;60035;52.122;5.406;2023-04-30T12:42:30;5.53;;;1.90;;
72156;SDS011;60035;52.122;5.406;2023-04-30T12:44:59;5.55;;;2.10;;
72156;SDS011;60035;52.122;5.406;2023-04-30T12:47:26;5.65;;;1.67;;
72156;SDS011;60035;52.122;5.406;2023-04-30T12:49:53;4.15;;;2.03;;
72156;SDS011;60035;52.122;5.406;2023-04-30T12:52:24;4.20;;;1.90;;
72156;SDS011;60035;52.122;5.406;2023-04-30T12:54:51;6.15;;;1.83;;
72156;SDS011;60035;52.122;5.406;2023-04-30T12:57:19;5.43;;;1.70;;
72156;SDS011;60035;52.122;5.406;2023-04-30T13:02:21;5.22;;;1.67;;
72156;SDS011;60035;52.122;5.406;2023-04-30T13:04:49;6.32;;;1.73;;
72156;SDS011;60035;52.122;5.406;2023-04-30T13:07:16;3.80;;;1.67;;
72156;SDS011;60035;52.122;5.406;2023-04-30T13:09:43;4.40;;;1.55;;
72156;SDS011;60035;52.122;5.406;2023-04-30T13:12:09;4.28;;;1.65;;
72156;SDS011;60035;52.122;5.406;2023-04-30T13:14:36;4.15;;;2.00;;
72156;SDS011;60035;52.122;5.406;2023-04-30T13:17:03;5.13;;;1.42;;
72156;SDS011;60035;52.122;5.406;2023-04-30T13:19:32;2.60;;;0.98;;
72156;SDS011;60035;52.122;5.406;2023-04-30T13:21:59;3.03;;;1.30;;
72156;SDS011;60035;52.122;5.406;2023-04-30T13:24:26;3.90;;;1.40;;
72156;SDS011;60035;52.122;5.406;2023-04-30T13:26:53;2.03;;;0.82;;
72156;SDS011;60035;52.122;5.406;2023-04-30T13:29:19;2.42;;;0.98;;
72156;SDS011;60035;52.122;5.406;2023-04-30T13:31:46;2.22;;;0.98;;
72156;SDS011;60035;52.122;5.406;2023-04-30T13:34:14;3.92;;;1.13;;
72156;SDS011;60035;52.122;5.406;2023-04-30T13:36:40;3.30;;;1.05;;
72156;SDS011;60035;52.122;5.406;2023-04-30T13:39:07;8.95;;;1.10;;
72156;SDS011;60035;52.122;5.406;2023-04-30T13:41:33;5.57;;;1.02;;
72156;SDS011;60035;52.122;5.406;2023-04-30T13:44:00;3.05;;;1.13;;
72156;SDS011;60035;52.122;5.406;2023-04-30T13:46:26;2.85;;;0.80;;
72156;SDS011;60035;52.122;5.406;2023-04-30T13:48:53;3.58;;;0.60;;
72156;SDS011;60035;52.122;5.406;2023-04-30T13:51:19;1.95;;;0.80;;
72156;SDS011;60035;52.122;5.406;2023-04-30T13:53:46;1.90;;;0.70;;
72156;SDS011;60035;52.122;5.406;2023-04-30T13:56:12;2.90;;;0.90;;
72156;SDS011;60035;52.122;5.406;2023-04-30T13:58:40;2.85;;;0.70;;
72156;SDS011;60035;52.122;5.406;2023-04-30T14:01:06;2.50;;;0.93;;
72156;SDS011;60035;52.122;5.406;2023-04-30T14:03:34;1.92;;;0.90;;
72156;SDS011;60035;52.122;5.406;2023-04-30T14:06:01;2.65;;;0.70;;
72156;SDS011;60035;52.122;5.406;2023-04-30T14:08:28;2.88;;;0.95;;
72156;SDS011;60035;52.122;5.406;2023-04-30T14:10:56;3.35;;;1.00;;
72156;SDS011;60035;52.122;5.406;2023-04-30T14:13:22;4.43;;;1.50;;
72156;SDS011;60035;52.122;5.406;2023-04-30T14:15:49;3.85;;;1.10;;
72156;SDS011;60035;52.122;5.406;2023-04-30T14:18:16;1.70;;;0.80;;
72156;SDS011;60035;52.122;5.406;2023-04-30T14:20:47;3.10;;;0.80;;
72156;SDS011;60035;52.122;5.406;2023-04-30T14:23:14;2.67;;;0.80;;
72156;SDS011;60035;52.122;5.406;2023-04-30T14:25:41;2.22;;;1.15;;
72156;SDS011;60035;52.122;5.406;2023-04-30T14:28:07;2.80;;;0.88;;
72156;SDS011;60035;52.122;5.406;2023-04-30T14:30:34;3.15;;;0.73;;
72156;SDS011;60035;52.122;5.406;2023-04-30T14:33:00;2.35;;;0.73;;
72156;SDS011;60035;52.122;5.406;2023-04-30T14:35:27;3.50;;;0.90;;
72156;SDS011;60035;52.122;5.406;2023-04-30T14:37:54;1.75;;;0.80;;
72156;SDS011;60035;52.122;5.406;2023-04-30T14:40:20;3.22;;;1.10;;
72156;SDS011;60035;52.122;5.406;2023-04-30T14:42:47;2.50;;;1.00;;
72156;SDS011;60035;52.122;5.406;2023-04-30T14:45:15;2.17;;;1.00;;
72156;SDS011;60035;52.122;5.406;2023-04-30T14:47:41;2.78;;;1.00;;
72156;SDS011;60035;52.122;5.406;2023-04-30T14:50:08;2.75;;;0.82;;
72156;SDS011;60035;52.122;5.406;2023-04-30T14:52:35;1.25;;;0.70;;
72156;SDS011;60035;52.122;5.406;2023-04-30T14:55:02;3.08;;;1.10;;
72156;SDS011;60035;52.122;5.406;2023-04-30T14:57:29;2.83;;;0.80;;
72156;SDS011;60035;52.122;5.406;2023-04-30T14:59:57;2.22;;;0.70;;
72156;SDS011;60035;52.122;5.406;2023-04-30T15:02:25;2.30;;;0.85;;
72156;SDS011;60035;52.122;5.406;2023-04-30T15:04:52;2.75;;;0.85;;
72156;SDS011;60035;52.122;5.406;2023-04-30T15:07:18;2.55;;;0.82;;
72156;SDS011;60035;52.122;5.406;2023-04-30T15:09:45;2.25;;;0.80;;
72156;SDS011;60035;52.122;5.406;2023-04-30T15:12:12;1.58;;;0.60;;
72156;SDS011;60035;52.122;5.406;2023-04-30T15:14:38;3.13;;;1.05;;